Formoso, Brazil
Current Conditions -  °F | °C
As of 3:00 PM on Sunday 23 Nov 2014 (Local Time) from SBGW Reporting Station
Broken Clouds Broken Clouds  
Wind Chill: 77°   Ceiling: 2000
Heat Index: 79°   Visibility: 4mi
Dew Point: 68°   Wind: 2mph
Humidity: 74%   Direction: 340°NNW
Pressure: 29.97"   Gusts: NA
Location:  22.63°S, 44.52°W
Report Text: SBGW 231700Z 34002KT 6000 FEW008 BKN020 BKN080 25/20 Q1015
Loading
Personal Weather Stations






























Interactive Weather Map New forecast layout! Learn more

10-Day Weather Forecast

Advertisements
Track Severe Weather on mobile